sensor_id;sensor_type;location;lat;lon;timestamp;temperature;humidity
24226;DHT22;51462;51.422;5.514;2023-04-08T00:01:19;8.70;99.90
24226;DHT22;51462;51.422;5.514;2023-04-08T00:03:44;8.60;99.90
24226;DHT22;51462;51.422;5.514;2023-04-08T00:06:10;8.60;99.90
24226;DHT22;51462;51.422;5.514;2023-04-08T00:08:36;8.70;99.90
24226;DHT22;51462;51.422;5.514;2023-04-08T00:11:01;8.80;99.90
24226;DHT22;51462;51.422;5.514;2023-04-08T00:13:27;8.90;99.90
24226;DHT22;51462;51.422;5.514;2023-04-08T00:15:52;8.80;99.90
24226;DHT22;51462;51.422;5.514;2023-04-08T00:18:18;9.00;99.90
24226;DHT22;51462;51.422;5.514;2023-04-08T00:20:43;8.80;99.90
24226;DHT22;51462;51.422;5.514;2023-04-08T00:23:10;8.90;99.90
24226;DHT22;51462;51.422;5.514;2023-04-08T00:25:35;9.10;99.90
24226;DHT22;51462;51.422;5.514;2023-04-08T00:28:01;8.90;99.90
24226;DHT22;51462;51.422;5.514;2023-04-08T00:30:26;8.90;99.90
24226;DHT22;51462;51.422;5.514;2023-04-08T00:32:52;9.00;99.90
24226;DHT22;51462;51.422;5.514;2023-04-08T00:35:18;9.00;99.90
24226;DHT22;51462;51.422;5.514;2023-04-08T00:37:44;8.90;99.90
24226;DHT22;51462;51.422;5.514;2023-04-08T00:40:10;8.80;99.90
24226;DHT22;51462;51.422;5.514;2023-04-08T00:42:36;8.90;99.90
24226;DHT22;51462;51.422;5.514;2023-04-08T00:45:01;8.80;99.90
24226;DHT22;51462;51.422;5.514;2023-04-08T00:47:28;8.70;99.90
24226;DHT22;51462;51.422;5.514;2023-04-08T00:49:53;8.80;99.90
24226;DHT22;51462;51.422;5.514;2023-04-08T00:52:19;8.80;99.90
24226;DHT22;51462;51.422;5.514;2023-04-08T00:54:44;8.80;99.90
24226;DHT22;51462;51.422;5.514;2023-04-08T00:57:10;8.80;99.90
24226;DHT22;51462;51.422;5.514;2023-04-08T00:59:36;8.80;99.90
24226;DHT22;51462;51.422;5.514;2023-04-08T01:02:13;8.80;99.90
24226;DHT22;51462;51.422;5.514;2023-04-08T01:07:14;8.80;99.90
24226;DHT22;51462;51.422;5.514;2023-04-08T01:09:44;8.80;99.90
24226;DHT22;51462;51.422;5.514;2023-04-08T01:12:11;8.80;99.90
24226;DHT22;51462;51.422;5.514;2023-04-08T01:14:41;8.80;99.90
24226;DHT22;51462;51.422;5.514;2023-04-08T01:17:08;8.80;99.90
24226;DHT22;51462;51.422;5.514;2023-04-08T01:19:38;8.70;99.90
24226;DHT22;51462;51.422;5.514;2023-04-08T01:22:15;9.00;99.90
24226;DHT22;51462;51.422;5.514;2023-04-08T01:24:44;8.80;99.90
24226;DHT22;51462;51.422;5.514;2023-04-08T01:27:12;8.70;99.90
24226;DHT22;51462;51.422;5.514;2023-04-08T01:29:38;8.70;99.90
24226;DHT22;51462;51.422;5.514;2023-04-08T01:32:06;8.70;99.90
24226;DHT22;51462;51.422;5.514;2023-04-08T01:34:33;8.70;99.90
24226;DHT22;51462;51.422;5.514;2023-04-08T01:37:01;8.70;99.90
24226;DHT22;51462;51.422;5.514;2023-04-08T01:39:27;8.60;99.90
24226;DHT22;51462;51.422;5.514;2023-04-08T01:41:54;8.60;99.90
24226;DHT22;51462;51.422;5.514;2023-04-08T01:44:21;8.50;99.90
24226;DHT22;51462;51.422;5.514;2023-04-08T01:46:48;8.50;99.90
24226;DHT22;51462;51.422;5.514;2023-04-08T01:49:15;8.50;99.90
24226;DHT22;51462;51.422;5.514;2023-04-08T01:51:42;8.50;99.90
24226;DHT22;51462;51.422;5.514;2023-04-08T01:54:09;8.60;99.90
24226;DHT22;51462;51.422;5.514;2023-04-08T01:56:38;8.50;99.90
24226;DHT22;51462;51.422;5.514;2023-04-08T01:59:09;8.50;99.90
24226;DHT22;51462;51.422;5.514;2023-04-08T02:01:36;8.40;99.90
24226;DHT22;51462;51.422;5.514;2023-04-08T02:04:02;8.50;99.90
24226;DHT22;51462;51.422;5.514;2023-04-08T02:06:29;8.50;99.90
24226;DHT22;51462;51.422;5.514;2023-04-08T02:08:55;8.40;99.90
24226;DHT22;51462;51.422;5.514;2023-04-08T02:11:21;8.60;99.90
24226;DHT22;51462;51.422;5.514;2023-04-08T02:13:47;8.60;99.90
24226;DHT22;51462;51.422;5.514;2023-04-08T02:16:22;8.50;99.90
24226;DHT22;51462;51.422;5.514;2023-04-08T02:18:58;8.50;99.90
24226;DHT22;51462;51.422;5.514;2023-04-08T02:21:30;8.70;99.90
24226;DHT22;51462;51.422;5.514;2023-04-08T02:23:59;8.60;99.90
24226;DHT22;51462;51.422;5.514;2023-04-08T02:26:26;8.50;99.90
24226;DHT22;51462;51.422;5.514;2023-04-08T02:28:53;8.50;99.90
24226;DHT22;51462;51.422;5.514;2023-04-08T02:31:19;8.50;99.90
24226;DHT22;51462;51.422;5.514;2023-04-08T02:33:45;8.50;99.90
24226;DHT22;51462;51.422;5.514;2023-04-08T02:36:13;8.50;99.90
24226;DHT22;51462;51.422;5.514;2023-04-08T02:38:39;8.50;99.90
24226;DHT22;51462;51.422;5.514;2023-04-08T02:41:05;8.60;99.90
24226;DHT22;51462;51.422;5.514;2023-04-08T02:43:31;8.60;99.90
24226;DHT22;51462;51.422;5.514;2023-04-08T02:46:00;8.60;99.90
24226;DHT22;51462;51.422;5.514;2023-04-08T02:48:29;8.60;99.90
24226;DHT22;51462;51.422;5.514;2023-04-08T02:50:55;8.50;99.90
24226;DHT22;51462;51.422;5.514;2023-04-08T02:53:22;8.40;99.90
24226;DHT22;51462;51.422;5.514;2023-04-08T02:55:48;8.50;99.90
24226;DHT22;51462;51.422;5.514;2023-04-08T02:58:13;8.40;99.90
24226;DHT22;51462;51.422;5.514;2023-04-08T03:00:40;8.50;99.90
24226;DHT22;51462;51.422;5.514;2023-04-08T03:03:05;8.50;99.90
24226;DHT22;51462;51.422;5.514;2023-04-08T03:05:31;8.50;99.90
24226;DHT22;51462;51.422;5.514;2023-04-08T03:07:57;8.50;99.90
24226;DHT22;51462;51.422;5.514;2023-04-08T03:10:23;8.40;99.90
24226;DHT22;51462;51.422;5.514;2023-04-08T03:12:49;8.50;99.90
24226;DHT22;51462;51.422;5.514;2023-04-08T03:15:14;8.50;99.90
24226;DHT22;51462;51.422;5.514;2023-04-08T03:17:40;8.40;99.90
24226;DHT22;51462;51.422;5.514;2023-04-08T03:20:06;8.40;99.90
24226;DHT22;51462;51.422;5.514;2023-04-08T03:22:32;8.40;99.90
24226;DHT22;51462;51.422;5.514;2023-04-08T03:25:01;8.50;99.90
24226;DHT22;51462;51.422;5.514;2023-04-08T03:27:26;8.40;99.90
24226;DHT22;51462;51.422;5.514;2023-04-08T03:29:52;8.40;99.90
24226;DHT22;51462;51.422;5.514;2023-04-08T03:32:18;8.40;99.90
24226;DHT22;51462;51.422;5.514;2023-04-08T03:34:45;8.40;99.90
24226;DHT22;51462;51.422;5.514;2023-04-08T03:37:10;8.40;99.90
24226;DHT22;51462;51.422;5.514;2023-04-08T03:39:36;8.40;99.90
24226;DHT22;51462;51.422;5.514;2023-04-08T03:42:02;8.50;99.90
24226;DHT22;51462;51.422;5.514;2023-04-08T03:44:28;8.50;99.90
24226;DHT22;51462;51.422;5.514;2023-04-08T03:46:53;8.40;99.90
24226;DHT22;51462;51.422;5.514;2023-04-08T03:49:19;8.40;99.90
24226;DHT22;51462;51.422;5.514;2023-04-08T03:51:45;8.40;99.90
24226;DHT22;51462;51.422;5.514;2023-04-08T03:54:10;8.50;99.90
24226;DHT22;51462;51.422;5.514;2023-04-08T03:56:36;8.40;99.90
24226;DHT22;51462;51.422;5.514;2023-04-08T03:59:01;8.40;99.90
24226;DHT22;51462;51.422;5.514;2023-04-08T04:01:27;8.40;99.90
24226;DHT22;51462;51.422;5.514;2023-04-08T04:03:54;8.40;99.90
24226;DHT22;51462;51.422;5.514;2023-04-08T04:06:19;8.40;99.90
24226;DHT22;51462;51.422;5.514;2023-04-08T04:08:45;8.30;99.90
24226;DHT22;51462;51.422;5.514;2023-04-08T04:11:11;8.30;99.90
24226;DHT22;51462;51.422;5.514;2023-04-08T04:13:36;8.40;99.90
24226;DHT22;51462;51.422;5.514;2023-04-08T04:16:02;8.30;99.90
24226;DHT22;51462;51.422;5.514;2023-04-08T04:18:27;8.30;99.90
24226;DHT22;51462;51.422;5.514;2023-04-08T04:20:53;8.30;99.90
24226;DHT22;51462;51.422;5.514;2023-04-08T04:23:18;8.40;99.90
24226;DHT22;51462;51.422;5.514;2023-04-08T04:25:44;8.40;99.90
24226;DHT22;51462;51.422;5.514;2023-04-08T04:28:09;8.40;99.90
24226;DHT22;51462;51.422;5.514;2023-04-08T04:30:36;8.40;99.90
24226;DHT22;51462;51.422;5.514;2023-04-08T04:33:03;8.50;99.90
24226;DHT22;51462;51.422;5.514;2023-04-08T04:35:28;8.40;99.90
24226;DHT22;51462;51.422;5.514;2023-04-08T04:37:54;8.40;99.90
24226;DHT22;51462;51.422;5.514;2023-04-08T04:40:19;8.40;99.90
24226;DHT22;51462;51.422;5.514;2023-04-08T04:42:45;8.50;99.90
24226;DHT22;51462;51.422;5.514;2023-04-08T04:45:11;8.50;99.90
24226;DHT22;51462;51.422;5.514;2023-04-08T04:47:37;8.50;99.90
24226;DHT22;51462;51.422;5.514;2023-04-08T04:50:02;8.50;99.90
24226;DHT22;51462;51.422;5.514;2023-04-08T04:52:28;8.50;99.90
24226;DHT22;51462;51.422;5.514;2023-04-08T04:54:55;8.50;99.90
24226;DHT22;51462;51.422;5.514;2023-04-08T04:57:21;8.50;99.90
24226;DHT22;51462;51.422;5.514;2023-04-08T04:59:46;8.50;99.90
24226;DHT22;51462;51.422;5.514;2023-04-08T05:02:12;8.60;99.90
24226;DHT22;51462;51.422;5.514;2023-04-08T05:04:37;8.60;99.90
24226;DHT22;51462;51.422;5.514;2023-04-08T05:07:03;8.50;99.90
24226;DHT22;51462;51.422;5.514;2023-04-08T05:09:29;8.60;99.90
24226;DHT22;51462;51.422;5.514;2023-04-08T05:11:55;8.50;99.90
24226;DHT22;51462;51.422;5.514;2023-04-08T05:14:21;8.70;99.90
24226;DHT22;51462;51.422;5.514;2023-04-08T05:16:46;8.80;99.90
24226;DHT22;51462;51.422;5.514;2023-04-08T05:19:12;8.70;99.90
24226;DHT22;51462;51.422;5.514;2023-04-08T05:21:37;8.60;99.90
24226;DHT22;51462;51.422;5.514;2023-04-08T05:24:03;8.70;99.90
24226;DHT22;51462;51.422;5.514;2023-04-08T05:26:28;8.70;99.90
24226;DHT22;51462;51.422;5.514;2023-04-08T05:28:55;8.70;99.90
24226;DHT22;51462;51.422;5.514;2023-04-08T05:31:20;8.70;99.90
24226;DHT22;51462;51.422;5.514;2023-04-08T05:33:46;8.70;99.90
24226;DHT22;51462;51.422;5.514;2023-04-08T05:36:13;8.70;99.90
24226;DHT22;51462;51.422;5.514;2023-04-08T05:38:39;8.70;99.90
24226;DHT22;51462;51.422;5.514;2023-04-08T05:41:06;8.70;99.90
24226;DHT22;51462;51.422;5.514;2023-04-08T05:43:32;8.70;99.90
24226;DHT22;51462;51.422;5.514;2023-04-08T05:45:58;8.70;99.90
24226;DHT22;51462;51.422;5.514;2023-04-08T05:48:24;8.60;99.90
24226;DHT22;51462;51.422;5.514;2023-04-08T05:50:49;8.70;99.90
24226;DHT22;51462;51.422;5.514;2023-04-08T05:53:15;8.70;99.90
24226;DHT22;51462;51.422;5.514;2023-04-08T05:55:40;8.70;99.90
24226;DHT22;51462;51.422;5.514;2023-04-08T05:58:06;8.60;99.90
24226;DHT22;51462;51.422;5.514;2023-04-08T06:00:32;8.60;99.90
24226;DHT22;51462;51.422;5.514;2023-04-08T06:02:58;8.60;99.90
24226;DHT22;51462;51.422;5.514;2023-04-08T06:05:23;8.60;99.90
24226;DHT22;51462;51.422;5.514;2023-04-08T06:07:49;8.60;99.90
24226;DHT22;51462;51.422;5.514;2023-04-08T06:10:14;8.60;99.90
24226;DHT22;51462;51.422;5.514;2023-04-08T06:12:40;8.70;99.90
24226;DHT22;51462;51.422;5.514;2023-04-08T06:15:07;8.90;99.90
24226;DHT22;51462;51.422;5.514;2023-04-08T06:17:35;8.90;99.90
24226;DHT22;51462;51.422;5.514;2023-04-08T06:20:02;8.90;99.90
24226;DHT22;51462;51.422;5.514;2023-04-08T06:22:28;9.00;99.90
24226;DHT22;51462;51.422;5.514;2023-04-08T06:24:53;9.00;99.90
24226;DHT22;51462;51.422;5.514;2023-04-08T06:27:19;8.90;99.90
24226;DHT22;51462;51.422;5.514;2023-04-08T06:29:45;9.00;99.90
24226;DHT22;51462;51.422;5.514;2023-04-08T06:32:12;9.00;99.90
24226;DHT22;51462;51.422;5.514;2023-04-08T06:34:37;9.00;99.90
24226;DHT22;51462;51.422;5.514;2023-04-08T06:37:03;8.90;99.90
24226;DHT22;51462;51.422;5.514;2023-04-08T06:39:30;8.90;99.90
24226;DHT22;51462;51.422;5.514;2023-04-08T06:41:56;9.00;99.90
24226;DHT22;51462;51.422;5.514;2023-04-08T06:44:22;9.00;99.90
24226;DHT22;51462;51.422;5.514;2023-04-08T06:46:48;9.00;99.90
24226;DHT22;51462;51.422;5.514;2023-04-08T06:49:13;9.20;99.90
24226;DHT22;51462;51.422;5.514;2023-04-08T06:51:39;9.20;99.90
24226;DHT22;51462;51.422;5.514;2023-04-08T06:54:05;9.20;99.90
24226;DHT22;51462;51.422;5.514;2023-04-08T06:56:30;9.10;99.90
24226;DHT22;51462;51.422;5.514;2023-04-08T06:58:56;9.10;99.90
24226;DHT22;51462;51.422;5.514;2023-04-08T07:01:22;9.20;99.90
24226;DHT22;51462;51.422;5.514;2023-04-08T07:03:48;9.20;99.90
24226;DHT22;51462;51.422;5.514;2023-04-08T07:06:13;9.20;99.90
24226;DHT22;51462;51.422;5.514;2023-04-08T07:08:39;9.30;99.90
24226;DHT22;51462;51.422;5.514;2023-04-08T07:11:04;9.30;99.90
24226;DHT22;51462;51.422;5.514;2023-04-08T07:13:30;9.50;99.90
24226;DHT22;51462;51.422;5.514;2023-04-08T07:15:56;9.60;99.90
24226;DHT22;51462;51.422;5.514;2023-04-08T07:18:21;9.40;99.90
24226;DHT22;51462;51.422;5.514;2023-04-08T07:20:51;9.30;99.90
24226;DHT22;51462;51.422;5.514;2023-04-08T07:23:18;9.40;99.90
24226;DHT22;51462;51.422;5.514;2023-04-08T07:25:44;9.30;99.90
24226;DHT22;51462;51.422;5.514;2023-04-08T07:28:11;9.20;99.90
24226;DHT22;51462;51.422;5.514;2023-04-08T07:30:36;9.20;99.90
24226;DHT22;51462;51.422;5.514;2023-04-08T07:33:02;9.40;99.90
24226;DHT22;51462;51.422;5.514;2023-04-08T07:35:28;9.50;99.90
24226;DHT22;51462;51.422;5.514;2023-04-08T07:37:53;9.50;99.90
24226;DHT22;51462;51.422;5.514;2023-04-08T07:40:19;9.60;99.90
24226;DHT22;51462;51.422;5.514;2023-04-08T07:42:45;9.50;99.90
24226;DHT22;51462;51.422;5.514;2023-04-08T07:45:11;9.60;99.90
24226;DHT22;51462;51.422;5.514;2023-04-08T07:47:36;9.80;99.90
24226;DHT22;51462;51.422;5.514;2023-04-08T07:50:03;9.70;99.90
24226;DHT22;51462;51.422;5.514;2023-04-08T07:52:32;9.80;99.90
24226;DHT22;51462;51.422;5.514;2023-04-08T07:54:57;9.70;99.90
24226;DHT22;51462;51.422;5.514;2023-04-08T07:57:23;9.80;99.90
24226;DHT22;51462;51.422;5.514;2023-04-08T07:59:49;9.80;99.90
24226;DHT22;51462;51.422;5.514;2023-04-08T08:02:15;9.70;99.90
24226;DHT22;51462;51.422;5.514;2023-04-08T08:04:41;9.50;99.90
24226;DHT22;51462;51.422;5.514;2023-04-08T08:07:06;9.80;99.90
24226;DHT22;51462;51.422;5.514;2023-04-08T08:09:32;9.90;99.90
24226;DHT22;51462;51.422;5.514;2023-04-08T08:11:57;10.00;99.90
24226;DHT22;51462;51.422;5.514;2023-04-08T08:14:23;10.00;99.90
24226;DHT22;51462;51.422;5.514;2023-04-08T08:16:49;9.90;99.90
24226;DHT22;51462;51.422;5.514;2023-04-08T08:19:15;10.00;99.90
24226;DHT22;51462;51.422;5.514;2023-04-08T08:21:40;10.10;99.90
24226;DHT22;51462;51.422;5.514;2023-04-08T08:24:06;9.90;99.90
24226;DHT22;51462;51.422;5.514;2023-04-08T08:26:35;9.80;99.90
24226;DHT22;51462;51.422;5.514;2023-04-08T08:29:04;9.80;99.90
24226;DHT22;51462;51.422;5.514;2023-04-08T08:31:30;9.80;99.90
24226;DHT22;51462;51.422;5.514;2023-04-08T08:33:56;9.60;99.90
24226;DHT22;51462;51.422;5.514;2023-04-08T08:36:21;9.70;99.90
24226;DHT22;51462;51.422;5.514;2023-04-08T08:38:47;9.80;99.90
24226;DHT22;51462;51.422;5.514;2023-04-08T08:41:13;9.90;99.90
24226;DHT22;51462;51.422;5.514;2023-04-08T08:43:39;9.80;99.90
24226;DHT22;51462;51.422;5.514;2023-04-08T08:46:09;9.90;99.90
24226;DHT22;51462;51.422;5.514;2023-04-08T08:48:35;9.90;99.90
24226;DHT22;51462;51.422;5.514;2023-04-08T08:51:07;10.00;99.90
24226;DHT22;51462;51.422;5.514;2023-04-08T08:53:33;10.20;99.90
24226;DHT22;51462;51.422;5.514;2023-04-08T08:55:59;10.40;99.90
24226;DHT22;51462;51.422;5.514;2023-04-08T08:58:27;10.40;99.90
24226;DHT22;51462;51.422;5.514;2023-04-08T09:00:53;10.50;99.90
24226;DHT22;51462;51.422;5.514;2023-04-08T09:03:21;10.60;99.90
24226;DHT22;51462;51.422;5.514;2023-04-08T09:05:53;10.40;99.90
24226;DHT22;51462;51.422;5.514;2023-04-08T09:10:48;10.60;99.90
24226;DHT22;51462;51.422;5.514;2023-04-08T09:13:13;10.70;99.90
24226;DHT22;51462;51.422;5.514;2023-04-08T09:18:25;10.70;99.90
24226;DHT22;51462;51.422;5.514;2023-04-08T09:20:52;10.50;99.90
24226;DHT22;51462;51.422;5.514;2023-04-08T09:23:17;10.50;99.90
24226;DHT22;51462;51.422;5.514;2023-04-08T09:25:43;10.60;99.90
24226;DHT22;51462;51.422;5.514;2023-04-08T09:28:19;10.50;99.90
24226;DHT22;51462;51.422;5.514;2023-04-08T09:30:45;10.60;99.90
24226;DHT22;51462;51.422;5.514;2023-04-08T09:33:11;10.50;99.90
24226;DHT22;51462;51.422;5.514;2023-04-08T09:35:37;10.60;99.90
24226;DHT22;51462;51.422;5.514;2023-04-08T09:38:03;10.60;99.90
24226;DHT22;51462;51.422;5.514;2023-04-08T09:40:33;10.70;99.90
24226;DHT22;51462;51.422;5.514;2023-04-08T09:43:08;10.80;99.90
24226;DHT22;51462;51.422;5.514;2023-04-08T09:45:38;10.80;99.90
24226;DHT22;51462;51.422;5.514;2023-04-08T09:48:13;10.50;99.90
24226;DHT22;51462;51.422;5.514;2023-04-08T09:50:48;10.80;99.90
24226;DHT22;51462;51.422;5.514;2023-04-08T09:53:19;10.90;99.90
24226;DHT22;51462;51.422;5.514;2023-04-08T09:55:53;10.90;99.90
24226;DHT22;51462;51.422;5.514;2023-04-08T09:58:40;11.00;99.90
24226;DHT22;51462;51.422;5.514;2023-04-08T10:01:07;11.10;99.90
24226;DHT22;51462;51.422;5.514;2023-04-08T10:03:48;11.10;99.90
24226;DHT22;51462;51.422;5.514;2023-04-08T10:06:16;11.20;99.90
24226;DHT22;51462;51.422;5.514;2023-04-08T10:08:42;11.30;99.90
24226;DHT22;51462;51.422;5.514;2023-04-08T10:11:08;11.30;99.90
24226;DHT22;51462;51.422;5.514;2023-04-08T10:13:34;11.30;99.90
24226;DHT22;51462;51.422;5.514;2023-04-08T10:18:46;11.40;99.90
24226;DHT22;51462;51.422;5.514;2023-04-08T10:21:31;11.40;99.90
24226;DHT22;51462;51.422;5.514;2023-04-08T10:23:58;11.50;99.90
24226;DHT22;51462;51.422;5.514;2023-04-08T10:26:33;11.50;99.90
24226;DHT22;51462;51.422;5.514;2023-04-08T10:31:47;11.70;99.90
24226;DHT22;51462;51.422;5.514;2023-04-08T10:34:20;11.80;99.90
24226;DHT22;51462;51.422;5.514;2023-04-08T10:36:47;11.70;99.90
24226;DHT22;51462;51.422;5.514;2023-04-08T10:39:16;11.80;99.90
24226;DHT22;51462;51.422;5.514;2023-04-08T10:41:42;11.80;99.90
24226;DHT22;51462;51.422;5.514;2023-04-08T10:44:22;11.70;99.90
24226;DHT22;51462;51.422;5.514;2023-04-08T10:46:49;11.70;99.90
24226;DHT22;51462;51.422;5.514;2023-04-08T10:49:16;11.90;99.90
24226;DHT22;51462;51.422;5.514;2023-04-08T10:51:42;11.80;99.90
24226;DHT22;51462;51.422;5.514;2023-04-08T10:54:10;11.80;99.90
24226;DHT22;51462;51.422;5.514;2023-04-08T10:56:43;11.80;99.90
24226;DHT22;51462;51.422;5.514;2023-04-08T10:59:10;11.60;99.90
24226;DHT22;51462;51.422;5.514;2023-04-08T11:01:40;11.70;99.90
24226;DHT22;51462;51.422;5.514;2023-04-08T11:04:10;11.70;99.90
24226;DHT22;51462;51.422;5.514;2023-04-08T11:06:36;11.80;99.90
24226;DHT22;51462;51.422;5.514;2023-04-08T11:09:02;12.10;99.90
24226;DHT22;51462;51.422;5.514;2023-04-08T11:11:30;12.40;99.90
24226;DHT22;51462;51.422;5.514;2023-04-08T11:13:56;12.60;99.90
24226;DHT22;51462;51.422;5.514;2023-04-08T11:16:22;12.50;99.90
24226;DHT22;51462;51.422;5.514;2023-04-08T11:18:49;12.70;99.90
24226;DHT22;51462;51.422;5.514;2023-04-08T11:21:15;12.80;99.90
24226;DHT22;51462;51.422;5.514;2023-04-08T11:23:41;12.80;99.90
24226;DHT22;51462;51.422;5.514;2023-04-08T11:26:07;12.90;99.90
24226;DHT22;51462;51.422;5.514;2023-04-08T11:28:34;13.10;99.90
24226;DHT22;51462;51.422;5.514;2023-04-08T11:31:00;13.20;99.90
24226;DHT22;51462;51.422;5.514;2023-04-08T11:33:30;13.40;99.90
24226;DHT22;51462;51.422;5.514;2023-04-08T11:35:56;13.80;99.90
24226;DHT22;51462;51.422;5.514;2023-04-08T11:38:23;13.50;99.90
24226;DHT22;51462;51.422;5.514;2023-04-08T11:40:56;13.60;99.90
24226;DHT22;51462;51.422;5.514;2023-04-08T11:43:23;13.80;99.90
24226;DHT22;51462;51.422;5.514;2023-04-08T11:45:49;13.90;99.90
24226;DHT22;51462;51.422;5.514;2023-04-08T11:48:16;13.90;99.90
24226;DHT22;51462;51.422;5.514;2023-04-08T11:50:43;14.00;99.90
24226;DHT22;51462;51.422;5.514;2023-04-08T11:53:19;14.30;99.90
24226;DHT22;51462;51.422;5.514;2023-04-08T11:55:45;14.40;99.90
24226;DHT22;51462;51.422;5.514;2023-04-08T11:58:11;14.30;99.90
24226;DHT22;51462;51.422;5.514;2023-04-08T12:00:37;14.50;99.90
24226;DHT22;51462;51.422;5.514;2023-04-08T12:03:03;14.70;99.90
24226;DHT22;51462;51.422;5.514;2023-04-08T12:05:28;14.80;99.90
24226;DHT22;51462;51.422;5.514;2023-04-08T12:07:54;15.00;99.90
24226;DHT22;51462;51.422;5.514;2023-04-08T12:10:20;15.20;99.90
24226;DHT22;51462;51.422;5.514;2023-04-08T12:12:46;15.20;99.90
24226;DHT22;51462;51.422;5.514;2023-04-08T12:15:11;15.60;99.90
24226;DHT22;51462;51.422;5.514;2023-04-08T12:17:37;15.90;99.90
24226;DHT22;51462;51.422;5.514;2023-04-08T12:20:04;15.70;99.90
24226;DHT22;51462;51.422;5.514;2023-04-08T12:22:30;15.80;99.90
24226;DHT22;51462;51.422;5.514;2023-04-08T12:24:56;15.50;99.90
24226;DHT22;51462;51.422;5.514;2023-04-08T12:27:21;15.60;99.90
24226;DHT22;51462;51.422;5.514;2023-04-08T12:29:47;15.60;99.90
24226;DHT22;51462;51.422;5.514;2023-04-08T12:32:14;16.20;99.90
24226;DHT22;51462;51.422;5.514;2023-04-08T12:34:40;16.60;99.90
24226;DHT22;51462;51.422;5.514;2023-04-08T12:37:05;16.50;99.90
24226;DHT22;51462;51.422;5.514;2023-04-08T12:39:31;16.50;99.90
24226;DHT22;51462;51.422;5.514;2023-04-08T12:41:56;17.00;99.90
24226;DHT22;51462;51.422;5.514;2023-04-08T12:44:22;17.30;99.90
24226;DHT22;51462;51.422;5.514;2023-04-08T12:46:48;17.10;99.90
24226;DHT22;51462;51.422;5.514;2023-04-08T12:49:13;16.90;99.90
24226;DHT22;51462;51.422;5.514;2023-04-08T12:51:39;17.00;99.90
24226;DHT22;51462;51.422;5.514;2023-04-08T12:54:05;16.90;99.90
24226;DHT22;51462;51.422;5.514;2023-04-08T12:56:31;17.20;99.90
24226;DHT22;51462;51.422;5.514;2023-04-08T12:58:57;17.50;99.90
24226;DHT22;51462;51.422;5.514;2023-04-08T13:01:23;17.60;99.90
24226;DHT22;51462;51.422;5.514;2023-04-08T13:03:49;17.70;99.90
24226;DHT22;51462;51.422;5.514;2023-04-08T13:06:14;17.30;99.90
24226;DHT22;51462;51.422;5.514;2023-04-08T13:08:40;17.70;99.90
24226;DHT22;51462;51.422;5.514;2023-04-08T13:11:07;17.60;99.90
24226;DHT22;51462;51.422;5.514;2023-04-08T13:13:32;17.50;99.90
24226;DHT22;51462;51.422;5.514;2023-04-08T13:15:58;17.60;99.90
24226;DHT22;51462;51.422;5.514;2023-04-08T13:18:24;17.90;99.90
24226;DHT22;51462;51.422;5.514;2023-04-08T13:20:49;18.10;99.90
24226;DHT22;51462;51.422;5.514;2023-04-08T13:23:15;18.50;99.90
24226;DHT22;51462;51.422;5.514;2023-04-08T13:25:42;18.60;99.90
24226;DHT22;51462;51.422;5.514;2023-04-08T13:28:08;18.80;99.90
24226;DHT22;51462;51.422;5.514;2023-04-08T13:30:34;18.80;99.90
24226;DHT22;51462;51.422;5.514;2023-04-08T13:32:59;18.90;99.90
24226;DHT22;51462;51.422;5.514;2023-04-08T13:35:25;19.00;99.90
24226;DHT22;51462;51.422;5.514;2023-04-08T13:37:51;18.10;99.90
24226;DHT22;51462;51.422;5.514;2023-04-08T13:40:16;18.50;99.90
24226;DHT22;51462;51.422;5.514;2023-04-08T13:42:42;18.50;99.90
24226;DHT22;51462;51.422;5.514;2023-04-08T13:45:08;18.20;99.90
24226;DHT22;51462;51.422;5.514;2023-04-08T13:47:33;18.80;99.90
24226;DHT22;51462;51.422;5.514;2023-04-08T13:50:00;18.50;99.90
24226;DHT22;51462;51.422;5.514;2023-04-08T13:52:25;17.90;99.90
24226;DHT22;51462;51.422;5.514;2023-04-08T13:54:51;18.30;99.90
24226;DHT22;51462;51.422;5.514;2023-04-08T13:57:17;17.90;99.90
24226;DHT22;51462;51.422;5.514;2023-04-08T13:59:42;17.60;99.90
24226;DHT22;51462;51.422;5.514;2023-04-08T14:02:08;17.80;99.90
24226;DHT22;51462;51.422;5.514;2023-04-08T14:04:34;17.90;99.90
24226;DHT22;51462;51.422;5.514;2023-04-08T14:06:59;18.00;99.90
24226;DHT22;51462;51.422;5.514;2023-04-08T14:09:25;18.10;99.90
24226;DHT22;51462;51.422;5.514;2023-04-08T14:11:50;17.80;99.90
24226;DHT22;51462;51.422;5.514;2023-04-08T14:14:16;17.50;99.90
24226;DHT22;51462;51.422;5.514;2023-04-08T14:16:42;17.50;99.90
24226;DHT22;51462;51.422;5.514;2023-04-08T14:19:08;17.50;99.90
24226;DHT22;51462;51.422;5.514;2023-04-08T14:21:36;17.50;99.90
24226;DHT22;51462;51.422;5.514;2023-04-08T14:24:03;17.30;99.90
24226;DHT22;51462;51.422;5.514;2023-04-08T14:26:29;17.20;99.90
24226;DHT22;51462;51.422;5.514;2023-04-08T14:28:55;17.20;99.90
24226;DHT22;51462;51.422;5.514;2023-04-08T14:31:22;17.20;99.90
24226;DHT22;51462;51.422;5.514;2023-04-08T14:33:48;17.10;99.90
24226;DHT22;51462;51.422;5.514;2023-04-08T14:36:13;16.60;99.90
24226;DHT22;51462;51.422;5.514;2023-04-08T14:38:39;16.80;99.90
24226;DHT22;51462;51.422;5.514;2023-04-08T14:41:04;16.90;99.90
24226;DHT22;51462;51.422;5.514;2023-04-08T14:43:30;16.90;99.90
24226;DHT22;51462;51.422;5.514;2023-04-08T14:45:56;17.00;99.90
24226;DHT22;51462;51.422;5.514;2023-04-08T14:48:21;17.20;99.90
24226;DHT22;51462;51.422;5.514;2023-04-08T14:50:50;16.90;99.90
24226;DHT22;51462;51.422;5.514;2023-04-08T14:53:15;16.80;99.90
24226;DHT22;51462;51.422;5.514;2023-04-08T14:55:42;17.00;99.90
24226;DHT22;51462;51.422;5.514;2023-04-08T14:58:07;17.20;99.90
24226;DHT22;51462;51.422;5.514;2023-04-08T15:00:33;17.30;99.90
24226;DHT22;51462;51.422;5.514;2023-04-08T15:02:58;18.00;99.90
24226;DHT22;51462;51.422;5.514;2023-04-08T15:05:24;18.60;99.90
24226;DHT22;51462;51.422;5.514;2023-04-08T15:07:49;18.90;99.90
24226;DHT22;51462;51.422;5.514;2023-04-08T15:10:16;18.60;99.90
24226;DHT22;51462;51.422;5.514;2023-04-08T15:12:41;18.90;99.90
24226;DHT22;51462;51.422;5.514;2023-04-08T15:15:07;18.70;99.90
24226;DHT22;51462;51.422;5.514;2023-04-08T15:17:36;18.80;99.90
24226;DHT22;51462;51.422;5.514;2023-04-08T15:20:02;18.60;99.90
24226;DHT22;51462;51.422;5.514;2023-04-08T15:22:27;18.80;99.90
24226;DHT22;51462;51.422;5.514;2023-04-08T15:24:53;19.00;99.90
24226;DHT22;51462;51.422;5.514;2023-04-08T15:27:18;19.10;99.90
24226;DHT22;51462;51.422;5.514;2023-04-08T15:29:44;18.60;99.90
24226;DHT22;51462;51.422;5.514;2023-04-08T15:32:09;18.40;99.90
24226;DHT22;51462;51.422;5.514;2023-04-08T15:34:35;18.50;99.90
24226;DHT22;51462;51.422;5.514;2023-04-08T15:37:01;18.80;99.90
24226;DHT22;51462;51.422;5.514;2023-04-08T15:39:26;18.50;99.90
24226;DHT22;51462;51.422;5.514;2023-04-08T15:41:52;18.20;99.90
24226;DHT22;51462;51.422;5.514;2023-04-08T15:44:18;18.10;99.90
24226;DHT22;51462;51.422;5.514;2023-04-08T15:46:43;17.90;99.90
24226;DHT22;51462;51.422;5.514;2023-04-08T15:49:09;18.60;99.90